Time;durP1;ratioP1;P1;durP2;ratioP2;P2;SDS_P1;SDS_P2;PMS_P1;PMS_P2;Temp;Humidity;BMP_temperature;BMP_pressure;BME280_temperature;BME280_humidity;BME280_pressure;Samples;Min_cycle;Max_cycle;Signal;HPM_P1;HPM_P2
2021/08/27 00:01:45;;;;;;;;;8.00;4.00;;;;;18.73;57.36;101613.56;6182275;23;45195;-61
2021/08/27 00:04:11;;;;;;;;;6.50;4.00;;;;;18.71;57.30;101609.28;6183655;23;45230;-61
2021/08/27 00:06:36;;;;;;;;;8.50;4.50;;;;;18.67;57.38;101617.56;6183728;22;45155;-60
2021/08/27 00:09:03;;;;;;;;;3.50;3.50;;;;;18.61;57.30;101607.31;6182976;23;45386;-61
2021/08/27 00:11:28;;;;;;;;;4.50;4.00;;;;;18.58;57.77;101612.91;6182578;23;46216;-61
2021/08/27 00:13:54;;;;;;;;;7.75;5.00;;;;;18.59;57.66;101608.44;6183217;23;45273;-61
2021/08/27 00:16:19;;;;;;;;;10.75;3.75;;;;;18.55;57.56;101602.47;6183581;22;45346;-61
2021/08/27 00:18:45;;;;;;;;;5.25;3.25;;;;;18.53;58.02;101600.91;6183420;23;45327;-60
2021/08/27 00:21:11;;;;;;;;;8.50;4.75;;;;;18.50;57.84;101603.81;6182880;23;46096;-62
2021/08/27 00:23:36;;;;;;;;;7.00;5.00;;;;;18.46;57.90;101599.69;6182459;23;45859;-61
2021/08/27 00:26:02;;;;;;;;;7.25;5.50;;;;;18.46;58.12;101608.53;6183508;22;45581;-61
2021/08/27 00:28:28;;;;;;;;;8.25;4.00;;;;;18.43;58.26;101603.44;6183522;23;45248;-62
2021/08/27 00:30:57;;;;;;;;;6.00;4.00;;;;;18.41;57.96;101592.91;6182391;23;46111;-63
2021/08/27 00:33:26;;;;;;;;;4.50;4.25;;;;;18.42;58.11;101596.44;6155980;23;45197;-64
2021/08/27 00:35:51;;;;;;;;;6.25;6.00;;;;;18.39;58.28;101585.97;6182876;23;45360;-63
2021/08/27 00:38:17;;;;;;;;;3.00;3.00;;;;;18.40;58.64;101593.00;6183012;23;45192;-62
2021/08/27 00:40:44;;;;;;;;;6.00;5.25;;;;;18.42;58.65;101591.94;6182624;23;46109;-60
2021/08/27 00:43:13;;;;;;;;;5.50;3.00;;;;;18.44;58.51;101583.81;6183124;23;45329;-63
2021/08/27 00:45:46;;;;;;;;;7.25;3.50;;;;;18.49;58.39;101589.63;6182481;23;45326;-61
2021/08/27 00:48:14;;;;;;;;;4.00;4.00;;;;;18.45;58.52;101588.16;6182693;23;45157;-62
2021/08/27 00:50:40;;;;;;;;;6.75;4.25;;;;;18.41;58.20;101584.06;6182202;23;45831;-64
2021/08/27 00:53:06;;;;;;;;;8.00;4.75;;;;;18.37;58.52;101587.91;6181052;22;45451;-64
2021/08/27 00:55:33;;;;;;;;;8.75;6.00;;;;;18.34;58.48;101582.84;6182835;23;45247;-61
2021/08/27 00:57:58;;;;;;;;;6.25;5.25;;;;;18.34;58.85;101585.50;6182910;23;45249;-60
2021/08/27 01:00:24;;;;;;;;;7.50;5.00;;;;;18.25;58.70;101584.41;6182692;22;45888;-61
2021/08/27 01:02:52;;;;;;;;;7.00;6.25;;;;;18.25;59.21;101584.41;6182243;23;45370;-62
2021/08/27 01:05:18;;;;;;;;;6.00;4.50;;;;;18.28;59.08;101589.50;6182863;22;45258;-59
2021/08/27 01:07:56;;;;;;;;;5.25;4.00;;;;;18.27;58.86;101579.81;6180536;23;45625;-64
2021/08/27 01:10:29;;;;;;;;;4.50;4.50;;;;;18.27;59.09;101577.13;6179776;22;46617;-64
2021/08/27 01:13:01;;;;;;;;;5.25;4.00;;;;;18.26;59.00;101571.94;6180089;23;45572;-64
2021/08/27 01:15:29;;;;;;;;;5.00;4.00;;;;;18.24;59.32;101580.03;6180098;23;45317;-63
2021/08/27 01:18:07;;;;;;;;;5.75;4.25;;;;;18.21;59.39;101576.75;6180331;23;45430;-64
2021/08/27 01:20:54;;;;;;;;;7.25;5.50;;;;;18.18;59.13;101575.19;6180286;23;45557;-64
2021/08/27 01:23:56;;;;;;;;;6.75;5.00;;;;;18.14;59.65;101576.38;6181450;22;45556;-64
2021/08/27 01:26:28;;;;;;;;;4.50;4.50;;;;;18.11;59.52;101580.16;6182759;23;45221;-64
2021/08/27 01:28:55;;;;;;;;;9.75;4.75;;;;;18.09;59.58;101573.25;6182987;23;45331;-64
2021/08/27 01:31:29;;;;;;;;;10.75;5.25;;;;;18.09;59.79;101570.56;6182888;23;46026;-63
2021/08/27 01:34:25;;;;;;;;;6.00;5.25;;;;;18.05;59.76;101569.94;6182562;23;45242;-64
2021/08/27 01:36:53;;;;;;;;;5.00;4.75;;;;;18.01;59.62;101573.84;6183160;23;45314;-64
2021/08/27 01:39:20;;;;;;;;;7.75;5.00;;;;;17.99;59.96;101575.75;6182225;23;45463;-63
2021/08/27 01:41:51;;;;;;;;;6.75;6.00;;;;;17.97;59.83;101579.50;6182244;23;45203;-63
2021/08/27 01:44:19;;;;;;;;;6.00;5.00;;;;;17.96;59.75;101581.31;6182646;23;45198;-63
2021/08/27 01:46:46;;;;;;;;;5.00;4.50;;;;;17.98;60.11;101575.88;6182774;23;45159;-64
2021/08/27 01:49:13;;;;;;;;;7.75;5.00;;;;;17.96;59.96;101572.47;6182899;23;45170;-63
2021/08/27 01:51:43;;;;;;;;;8.25;6.25;;;;;17.95;59.82;101571.63;6182140;23;45299;-64
2021/08/27 01:54:09;;;;;;;;;10.25;7.00;;;;;17.95;60.05;101571.63;6181335;23;45570;-63
2021/08/27 01:56:37;;;;;;;;;7.00;5.00;;;;;17.95;60.07;101578.78;6182897;23;45235;-63
2021/08/27 01:59:04;;;;;;;;;8.00;6.75;;;;;17.95;60.36;101573.47;6183078;23;45196;-64
2021/08/27 02:01:31;;;;;;;;;10.00;4.00;;;;;17.96;60.47;101577.81;6182376;23;46212;-64
2021/08/27 02:04:02;;;;;;;;;6.00;4.00;;;;;17.94;60.06;101571.75;6182493;23;45246;-63
2021/08/27 02:06:28;;;;;;;;;8.00;6.00;;;;;17.93;60.27;101573.59;6182943;23;45259;-64
2021/08/27 02:08:55;;;;;;;;;7.00;4.00;;;;;17.90;60.36;101573.78;6182348;23;45281;-63
2021/08/27 02:11:21;;;;;;;;;5.75;3.50;;;;;17.90;60.10;101572.94;6182589;23;45282;-63
2021/08/27 02:13:47;;;;;;;;;8.50;5.25;;;;;17.90;60.42;101583.63;6182432;23;45192;-63
2021/08/27 02:16:14;;;;;;;;;7.75;6.25;;;;;17.90;60.37;101580.94;6182593;23;45143;-63
2021/08/27 02:18:40;;;;;;;;;7.00;5.50;;;;;17.91;60.52;101579.97;6182793;23;45097;-63
2021/08/27 02:21:08;;;;;;;;;8.00;5.50;;;;;17.89;60.45;101584.59;6182112;23;45860;-63
2021/08/27 02:23:35;;;;;;;;;8.00;5.25;;;;;17.88;60.55;101578.41;6183805;23;45282;-63
2021/08/27 02:26:02;;;;;;;;;5.25;4.75;;;;;17.90;60.58;101584.47;6184604;23;45239;-63
2021/08/27 02:28:29;;;;;;;;;5.75;3.50;;;;;17.89;60.42;101588.09;6184666;22;45353;-63
2021/08/27 02:30:55;;;;;;;;;8.00;4.25;;;;;17.90;60.55;101578.28;6184584;23;45285;-63
2021/08/27 02:33:23;;;;;;;;;6.50;4.25;;;;;17.87;60.46;101583.84;6184429;23;45250;-63
2021/08/27 02:35:49;;;;;;;;;9.00;5.25;;;;;17.83;60.61;101577.91;6184341;23;45329;-64
2021/08/27 02:38:19;;;;;;;;;6.25;5.25;;;;;17.82;60.77;101590.38;6184231;23;45292;-63
2021/08/27 02:40:44;;;;;;;;;7.00;5.75;;;;;17.83;60.76;101584.06;6184023;23;45355;-63
2021/08/27 02:43:11;;;;;;;;;8.00;4.00;;;;;17.84;60.56;101584.91;6183652;23;45192;-63
2021/08/27 02:45:36;;;;;;;;;8.25;6.00;;;;;17.81;60.77;101579.84;6184749;22;45215;-63
2021/08/27 02:48:02;;;;;;;;;6.00;4.00;;;;;17.81;60.72;101580.69;6184611;22;45164;-63
2021/08/27 02:50:31;;;;;;;;;10.50;8.00;;;;;17.83;60.96;101591.22;6184299;23;45094;-63
2021/08/27 02:53:19;;;;;;;;;6.00;3.50;;;;;17.84;60.79;101585.75;6183705;23;45287;-64
2021/08/27 02:55:50;;;;;;;;;6.25;3.00;;;;;17.85;60.88;101589.28;6184227;23;45201;-63
2021/08/27 02:58:23;;;;;;;;;4.00;3.75;;;;;17.85;61.01;101583.94;6184828;23;45184;-64
2021/08/27 03:01:00;;;;;;;;;7.00;6.00;;;;;17.81;60.84;101583.34;6183661;23;45455;-63
2021/08/27 03:03:28;;;;;;;;;7.50;5.50;;;;;17.83;60.92;101580.56;6183770;23;45382;-64
2021/08/27 03:06:00;;;;;;;;;8.50;5.00;;;;;17.87;60.95;101583.84;6183181;23;45260;-64
2021/08/27 03:08:28;;;;;;;;;6.50;6.00;;;;;17.86;61.00;101580.34;6184196;22;45395;-64
2021/08/27 03:11:14;;;;;;;;;10.75;4.75;;;;;17.87;61.07;101584.69;6184102;23;45198;-64
2021/08/27 03:14:01;;;;;;;;;9.00;6.75;;;;;17.86;61.17;101583.00;6183932;23;45231;-64
2021/08/27 03:16:28;;;;;;;;;5.00;3.50;;;;;17.84;61.29;101575.09;6184165;23;45110;-63
2021/08/27 03:19:00;;;;;;;;;8.75;5.75;;;;;17.85;61.38;101578.63;6184062;23;45273;-64
2021/08/27 03:21:48;;;;;;;;;5.75;5.75;;;;;17.83;61.27;101578.75;6183769;23;46448;-64
2021/08/27 03:24:20;;;;;;;;;9.25;6.25;;;;;17.81;61.28;101579.84;6183772;23;45266;-64
2021/08/27 03:26:52;;;;;;;;;8.25;7.00;;;;;17.83;61.55;101578.75;6183693;23;45609;-63
2021/08/27 03:29:19;;;;;;;;;6.75;6.00;;;;;17.86;61.56;101575.00;6184414;23;45413;-64
2021/08/27 03:31:45;;;;;;;;;8.25;5.50;;;;;17.88;61.43;101574.88;6183265;23;45536;-64
2021/08/27 03:34:11;;;;;;;;;10.75;6.00;;;;;17.87;61.34;101574.03;6184009;23;45162;-64
2021/08/27 03:36:39;;;;;;;;;9.75;6.75;;;;;17.87;61.51;101579.38;6184132;23;45152;-64
2021/08/27 03:39:06;;;;;;;;;8.75;6.00;;;;;17.90;61.36;101573.78;6183517;23;45367;-63
2021/08/27 03:41:36;;;;;;;;;6.00;5.75;;;;;17.91;61.20;101575.50;6183709;22;45268;-64
2021/08/27 03:44:03;;;;;;;;;7.25;6.00;;;;;17.92;61.33;101573.66;6183303;22;45160;-64
2021/08/27 03:46:28;;;;;;;;;7.50;6.00;;;;;17.92;61.47;101573.66;6184265;23;45375;-64
2021/08/27 03:48:55;;;;;;;;;10.25;5.25;;;;;17.92;61.47;101579.00;6183894;22;45240;-63
2021/08/27 03:51:22;;;;;;;;;6.00;5.50;;;;;17.94;61.42;101577.94;6183621;23;45961;-64
2021/08/27 03:53:48;;;;;;;;;10.00;4.25;;;;;17.98;61.38;101579.38;6308615;22;45342;-64
2021/08/27 03:56:14;;;;;;;;;7.00;4.75;;;;;17.99;61.54;101574.91;6311933;22;45170;-64
2021/08/27 03:58:41;;;;;;;;;8.50;5.50;;;;;18.01;61.62;101573.84;6312084;22;45110;-64
2021/08/27 04:01:07;;;;;;;;;6.75;4.75;;;;;18.02;61.36;101562.19;6311614;22;45254;-64
2021/08/27 04:03:34;;;;;;;;;12.50;8.00;;;;;18.05;61.28;101561.09;6311392;22;45350;-63
2021/08/27 04:06:06;;;;;;;;;6.25;6.00;;;;;18.08;61.35;101569.69;6311935;22;45212;-64
2021/08/27 04:08:37;;;;;;;;;10.00;5.25;;;;;18.10;61.75;101567.78;6311437;22;45230;-64
2021/08/27 04:11:04;;;;;;;;;8.25;6.50;;;;;18.13;61.40;101562.19;6311776;22;45319;-63
2021/08/27 04:13:29;;;;;;;;;12.25;6.25;;;;;18.14;61.49;101557.72;6311740;22;45427;-64
2021/08/27 04:15:55;;;;;;;;;9.00;6.50;;;;;18.10;61.56;101565.13;6311940;22;45180;-61
2021/08/27 04:18:20;;;;;;;;;8.25;5.25;;;;;18.09;61.65;101565.25;6311567;22;45375;-64
2021/08/27 04:20:46;;;;;;;;;10.50;6.75;;;;;18.05;61.66;101563.78;6311919;22;45900;-64
2021/08/27 04:23:12;;;;;;;;;17.25;9.50;;;;;18.03;61.82;101563.91;6309013;22;45334;-64
2021/08/27 04:25:38;;;;;;;;;12.50;7.25;;;;;18.01;61.90;101557.84;6311865;22;45153;-63
2021/08/27 04:28:04;;;;;;;;;11.75;7.25;;;;;17.97;62.02;101558.19;6311708;22;45374;-64
2021/08/27 04:30:30;;;;;;;;;7.75;4.75;;;;;17.97;62.23;101556.38;6311895;22;46135;-63
2021/08/27 04:32:55;;;;;;;;;14.75;6.75;;;;;17.99;62.44;101558.91;6311347;22;45312;-63
2021/08/27 04:35:21;;;;;;;;;17.50;9.00;;;;;18.00;62.31;101560.59;6312114;22;45192;-64
2021/08/27 04:37:47;;;;;;;;;7.25;6.00;;;;;18.01;62.71;101564.97;6311522;22;45367;-64
2021/08/27 04:40:12;;;;;;;;;12.00;6.75;;;;;17.99;62.76;101562.41;6311677;22;46050;-64
2021/08/27 04:42:38;;;;;;;;;9.75;5.75;;;;;17.97;62.70;101569.69;6311341;22;45260;-64
2021/08/27 04:45:04;;;;;;;;;8.50;5.75;;;;;17.98;62.71;101570.53;6311941;22;45075;-64
2021/08/27 04:47:30;;;;;;;;;9.50;8.00;;;;;17.96;62.96;101575.16;6311738;22;45369;-64
2021/08/27 04:49:55;;;;;;;;;8.75;6.00;;;;;17.94;62.65;101575.28;6311472;22;45865;-64
2021/08/27 04:52:20;;;;;;;;;10.25;6.00;;;;;17.91;62.97;101582.63;6311148;22;45259;-64
2021/08/27 04:54:46;;;;;;;;;9.00;6.50;;;;;17.85;63.03;101584.81;6216171;22;45271;-64
2021/08/27 04:57:11;;;;;;;;;11.75;7.25;;;;;17.85;63.20;101586.63;6183409;23;45140;-63
2021/08/27 04:59:42;;;;;;;;;18.50;14.50;;;;;17.85;63.27;101582.16;6183166;23;45135;-64
2021/08/27 05:02:08;;;;;;;;;15.25;6.25;;;;;17.81;63.11;101596.69;6182546;23;45342;-63
2021/08/27 05:04:33;;;;;;;;;13.75;8.50;;;;;17.77;63.48;101589.91;6183167;23;45152;-64
2021/08/27 05:06:59;;;;;;;;;11.50;8.50;;;;;17.78;63.40;101591.59;6183204;22;45472;-63
2021/08/27 05:09:24;;;;;;;;;7.75;7.50;;;;;17.79;63.39;101601.28;6183196;22;46089;-64
2021/08/27 05:11:50;;;;;;;;;8.75;5.25;;;;;17.83;63.34;101601.88;6182971;23;45239;-63
2021/08/27 05:14:15;;;;;;;;;9.50;9.50;;;;;17.83;63.30;101604.53;6183254;23;45307;-63
2021/08/27 05:16:41;;;;;;;;;7.50;6.50;;;;;17.85;63.28;101605.28;6183350;22;45396;-63
2021/08/27 05:19:06;;;;;;;;;9.00;7.00;;;;;17.87;62.93;101608.69;6183129;23;46188;-63
2021/08/27 05:21:32;;;;;;;;;10.75;8.00;;;;;17.87;63.33;101613.19;6183077;22;45200;-64
2021/08/27 05:23:58;;;;;;;;;7.25;5.75;;;;;17.83;63.66;101601.88;6182987;23;45151;-61
2021/08/27 05:26:23;;;;;;;;;17.25;10.00;;;;;17.82;63.57;101610.84;6183049;23;45538;-61
2021/08/27 05:28:49;;;;;;;;;12.50;9.00;;;;;17.84;63.72;101622.22;6183099;22;45809;-62
2021/08/27 05:31:15;;;;;;;;;7.25;5.25;;;;;17.85;63.47;101618.59;6182618;22;45397;-62
2021/08/27 05:33:42;;;;;;;;;14.50;8.00;;;;;17.82;63.85;101626.84;6182588;23;45266;-62
2021/08/27 05:36:08;;;;;;;;;18.50;10.75;;;;;17.80;63.96;101623.44;6183010;23;45319;-62
2021/08/27 05:38:34;;;;;;;;;12.25;7.00;;;;;17.81;64.07;101626.00;6182488;23;45223;-62
2021/08/27 05:40:59;;;;;;;;;12.50;9.25;;;;;17.79;64.05;101629.75;6182586;23;45251;-62
2021/08/27 05:43:25;;;;;;;;;8.50;6.75;;;;;17.76;63.88;101625.47;6182943;22;45217;-62
2021/08/27 05:45:50;;;;;;;;;12.75;9.00;;;;;17.70;64.06;101628.63;6182976;23;45157;-63
2021/08/27 05:48:16;;;;;;;;;13.25;9.25;;;;;17.75;64.18;101630.94;6182718;23;46352;-64
2021/08/27 05:50:42;;;;;;;;;13.00;7.50;;;;;17.80;64.37;101634.09;6182829;23;45171;-61
2021/08/27 05:53:07;;;;;;;;;10.75;6.50;;;;;17.80;63.92;101639.44;6182024;23;45262;-64
2021/08/27 05:55:33;;;;;;;;;15.75;7.50;;;;;17.81;64.58;101633.97;6182408;22;45184;-64
2021/08/27 05:57:59;;;;;;;;;13.00;9.00;;;;;17.81;64.47;101635.81;6182742;23;46508;-64
2021/08/27 06:00:24;;;;;;;;;12.75;7.75;;;;;17.86;64.36;101636.31;6182779;23;45338;-64
2021/08/27 06:02:50;;;;;;;;;9.50;9.25;;;;;17.91;64.52;101633.28;6182568;23;45304;-64
2021/08/27 06:05:17;;;;;;;;;10.50;9.00;;;;;17.95;64.17;101648.09;6182958;23;45243;-63
2021/08/27 06:07:42;;;;;;;;;11.00;7.75;;;;;17.97;64.13;101649.66;6287240;22;45440;-63
2021/08/27 06:10:11;;;;;;;;;11.50;8.50;;;;;17.98;64.09;101643.38;6181276;23;45262;-63
2021/08/27 06:12:36;;;;;;;;;14.25;9.00;;;;;18.00;64.19;101646.75;6182154;23;45267;-63
2021/08/27 06:15:02;;;;;;;;;12.50;8.75;;;;;18.02;64.21;101646.66;6180874;23;45180;-63
2021/08/27 06:17:28;;;;;;;;;11.00;8.25;;;;;17.98;64.16;101646.03;6182365;23;45182;-62
2021/08/27 06:19:53;;;;;;;;;13.00;8.25;;;;;18.05;64.56;101644.59;6182405;22;45301;-63
2021/08/27 06:22:19;;;;;;;;;17.75;9.50;;;;;18.12;64.14;101651.16;6182287;23;45392;-63
2021/08/27 06:24:45;;;;;;;;;11.50;10.50;;;;;18.21;64.40;101651.44;6182671;23;45335;-63
2021/08/27 06:27:11;;;;;;;;;12.50;9.00;;;;;18.30;63.96;101650.72;6182357;23;45374;-63
2021/08/27 06:29:36;;;;;;;;;11.00;9.50;;;;;18.35;63.87;101645.88;6182465;23;45333;-63
2021/08/27 06:32:02;;;;;;;;;12.00;9.00;;;;;18.38;63.58;101654.50;6155466;22;45308;-62
2021/08/27 06:34:28;;;;;;;;;13.50;8.25;;;;;18.38;63.66;101659.81;6182586;23;45232;-63
2021/08/27 06:36:54;;;;;;;;;10.50;10.25;;;;;18.36;63.80;101667.09;6182096;23;45933;-62
2021/08/27 06:39:20;;;;;;;;;16.00;9.75;;;;;18.39;63.59;101664.19;6182085;23;45282;-62
2021/08/27 06:41:45;;;;;;;;;15.50;9.50;;;;;18.45;63.83;101670.03;6181962;23;45163;-62
2021/08/27 06:44:11;;;;;;;;;15.25;11.00;;;;;18.48;63.79;101670.63;6182401;23;45428;-62
2021/08/27 06:46:36;;;;;;;;;13.75;12.00;;;;;18.59;63.73;101673.31;6182033;22;45333;-62
2021/08/27 06:49:02;;;;;;;;;17.50;11.50;;;;;18.68;63.36;101661.97;6182404;22;45124;-62
2021/08/27 06:51:28;;;;;;;;;14.25;13.25;;;;;18.79;62.97;101670.94;6182420;23;45142;-62
2021/08/27 06:53:54;;;;;;;;;25.75;24.50;;;;;18.79;63.01;101674.44;6180805;23;45408;-62
2021/08/27 06:56:22;;;;;;;;;16.00;11.25;;;;;18.83;63.10;101675.06;6182477;23;45258;-62
2021/08/27 06:58:48;;;;;;;;;21.50;13.75;;;;;18.89;62.76;101685.28;6182258;23;45335;-62
2021/08/27 07:01:14;;;;;;;;;14.00;11.50;;;;;19.01;62.62;101675.41;6180567;22;45141;-62
2021/08/27 07:03:39;;;;;;;;;18.50;13.25;;;;;19.12;62.75;101678.94;6182326;23;45323;-62
2021/08/27 07:06:05;;;;;;;;;18.25;14.25;;;;;19.23;62.30;101694.94;6182463;23;45308;-63
2021/08/27 07:08:31;;;;;;;;;15.50;14.25;;;;;19.24;62.57;101690.44;6183356;23;45317;-63
2021/08/27 07:10:56;;;;;;;;;18.25;12.50;;;;;19.23;61.58;101689.59;6184460;22;45168;-63
2021/08/27 07:13:22;;;;;;;;;17.50;13.75;;;;;19.21;61.83;101698.72;6183875;22;45343;-63
2021/08/27 07:15:48;;;;;;;;;16.50;13.25;;;;;19.19;62.16;101690.81;6288414;22;45413;-63
2021/08/27 07:18:13;;;;;;;;;14.75;11.75;;;;;19.25;61.49;101697.47;6184208;23;45449;-62
2021/08/27 07:20:39;;;;;;;;;12.75;12.00;;;;;19.26;61.78;101699.19;6184045;23;45283;-63
2021/08/27 07:23:05;;;;;;;;;14.50;13.25;;;;;19.34;61.75;101703.91;6183146;22;45266;-62
2021/08/27 07:25:30;;;;;;;;;14.25;12.50;;;;;19.38;61.21;101700.88;6183898;23;45325;-63
2021/08/27 07:27:56;;;;;;;;;13.50;13.25;;;;;19.40;61.38;101704.25;6183806;23;45247;-63
2021/08/27 07:30:21;;;;;;;;;17.50;13.00;;;;;19.43;60.77;101700.47;6288911;22;45351;-63
2021/08/27 07:32:47;;;;;;;;;17.75;12.00;;;;;19.47;60.73;101701.94;6183708;23;45365;-63
2021/08/27 07:35:13;;;;;;;;;14.50;11.25;;;;;19.52;60.83;101699.75;6183837;22;45958;-63
2021/08/27 07:37:42;;;;;;;;;11.00;11.00;;;;;19.54;60.72;101708.50;6183748;23;45253;-63
2021/08/27 07:40:14;;;;;;;;;13.00;12.75;;;;;19.55;60.54;101704.00;6183966;23;45172;-63
2021/08/27 07:42:41;;;;;;;;;17.50;14.50;;;;;19.54;59.93;101703.16;6183708;23;45357;-63
2021/08/27 07:45:07;;;;;;;;;14.25;10.25;;;;;19.53;59.61;101710.31;6183665;23;46206;-63
2021/08/27 07:47:32;;;;;;;;;15.00;11.75;;;;;19.54;59.94;101705.81;6183773;23;45161;-62
2021/08/27 07:49:58;;;;;;;;;15.50;11.50;;;;;19.58;60.08;101712.63;6183916;22;45183;-63
2021/08/27 07:52:23;;;;;;;;;12.00;9.00;;;;;19.61;59.10;101714.22;6183333;23;45201;-63
2021/08/27 07:54:49;;;;;;;;;13.00;10.00;;;;;19.62;58.94;101716.75;6182619;22;45305;-63
2021/08/27 07:57:14;;;;;;;;;8.50;8.50;;;;;19.59;58.83;101706.34;6183746;22;45276;-63
2021/08/27 07:59:40;;;;;;;;;18.75;16.00;;;;;19.63;58.85;101717.59;6183925;23;45232;-63
2021/08/27 08:02:08;;;;;;;;;11.25;9.00;;;;;19.66;58.44;101720.03;6183364;22;45300;-63
2021/08/27 08:04:33;;;;;;;;;10.00;6.75;;;;;19.69;58.74;101725.13;6182679;23;45267;-63
2021/08/27 08:06:58;;;;;;;;;12.25;10.75;;;;;19.73;58.38;101719.38;6183370;22;45243;-63
2021/08/27 08:09:24;;;;;;;;;10.50;7.00;;;;;19.78;58.13;101719.03;6183805;22;45404;-63
2021/08/27 08:11:51;;;;;;;;;8.00;7.00;;;;;19.80;57.46;101714.41;6183547;23;45603;-64
2021/08/27 08:14:16;;;;;;;;;11.50;8.25;;;;;19.82;57.70;101720.44;6183923;22;45149;-63
2021/08/27 08:16:42;;;;;;;;;7.75;6.50;;;;;19.82;56.70;101717.78;6183338;23;45164;-63
2021/08/27 08:19:09;;;;;;;;;7.75;7.00;;;;;19.84;56.48;101725.69;6183525;23;45168;-63
2021/08/27 08:21:35;;;;;;;;;8.25;6.50;;;;;19.85;56.63;101719.38;6183334;23;45176;-63
2021/08/27 08:24:00;;;;;;;;;8.75;7.25;;;;;19.89;56.42;101726.16;6183079;22;45352;-63
2021/08/27 08:26:26;;;;;;;;;7.75;7.00;;;;;19.87;56.70;101720.94;6183711;22;45244;-63
2021/08/27 08:28:53;;;;;;;;;9.00;7.00;;;;;19.88;56.34;101729.81;6183740;23;45286;-63
2021/08/27 08:31:21;;;;;;;;;11.50;8.25;;;;;19.87;56.53;101725.44;6183781;23;45251;-63
2021/08/27 08:33:52;;;;;;;;;8.75;6.75;;;;;19.88;56.20;101724.44;6183728;23;45296;-63
2021/08/27 08:36:19;;;;;;;;;9.75;7.00;;;;;19.89;56.18;101723.47;6183244;23;45238;-62
2021/08/27 08:38:45;;;;;;;;;8.75;8.25;;;;;19.89;56.57;101729.66;6183272;23;45184;-63
2021/08/27 08:41:12;;;;;;;;;11.00;8.25;;;;;19.91;55.68;101727.75;6183358;23;45169;-63
2021/08/27 08:43:38;;;;;;;;;8.50;8.00;;;;;19.91;55.98;101725.06;6183123;23;45195;-63
2021/08/27 08:46:05;;;;;;;;;8.00;6.50;;;;;19.95;55.84;101723.81;6183533;23;45232;-62
2021/08/27 08:48:33;;;;;;;;;13.00;7.00;;;;;19.96;55.55;101727.34;6183481;23;45282;-62
2021/08/27 08:51:02;;;;;;;;;5.50;4.00;;;;;19.97;54.64;101729.03;6156609;23;45197;-63
2021/08/27 08:53:29;;;;;;;;;8.50;6.25;;;;;20.00;53.82;101726.13;6181828;23;46067;-63
2021/08/27 08:55:55;;;;;;;;;6.75;5.00;;;;;20.04;54.16;101731.06;6182641;23;45366;-63
2021/08/27 08:58:21;;;;;;;;;5.50;5.00;;;;;20.07;54.11;101733.50;6183392;23;45270;-63
2021/08/27 09:00:46;;;;;;;;;4.75;4.75;;;;;20.12;54.57;101726.91;6183243;23;45799;-63
2021/08/27 09:03:12;;;;;;;;;10.00;5.75;;;;;20.21;54.31;101724.31;6182651;23;45266;-63
2021/08/27 09:05:41;;;;;;;;;11.00;7.50;;;;;20.24;53.72;101726.75;6183333;22;45252;-63
2021/08/27 09:08:07;;;;;;;;;8.25;6.00;;;;;20.30;54.15;101728.91;6181098;22;45155;-63
2021/08/27 09:10:41;;;;;;;;;7.00;4.75;;;;;20.41;53.95;101736.00;6183147;23;45168;-63
2021/08/27 09:13:07;;;;;;;;;11.00;6.00;;;;;20.53;53.64;101732.31;6182464;23;46078;-63
2021/08/27 09:15:33;;;;;;;;;6.75;5.75;;;;;20.63;53.47;101727.88;6180706;22;45306;-63
2021/08/27 09:18:05;;;;;;;;;6.00;5.25;;;;;20.78;53.29;101728.38;6183083;23;45113;-63
2021/08/27 09:20:31;;;;;;;;;5.25;2.75;;;;;20.87;52.45;101727.59;6156327;23;45126;-63
2021/08/27 09:22:58;;;;;;;;;8.00;7.25;;;;;20.98;52.48;101737.34;6180709;23;45286;-62
2021/08/27 09:25:28;;;;;;;;;6.00;4.25;;;;;21.00;51.81;101745.25;6183100;23;45365;-62
2021/08/27 09:28:08;;;;;;;;;5.50;5.00;;;;;20.98;51.50;101740.03;6182742;22;45358;-62
2021/08/27 09:30:54;;;;;;;;;9.25;4.75;;;;;21.01;51.80;101742.44;6182947;23;45409;-63
2021/08/27 09:33:26;;;;;;;;;9.50;6.75;;;;;21.06;51.24;101739.34;6182521;23;45251;-63
2021/08/27 09:36:00;;;;;;;;;6.25;6.00;;;;;21.07;51.55;101741.06;6182452;23;45214;-63
2021/08/27 09:38:29;;;;;;;;;6.50;3.75;;;;;21.13;51.25;101729.81;6155553;23;45220;-63
2021/08/27 09:41:04;;;;;;;;;6.25;5.25;;;;;21.16;51.63;101735.72;6182577;23;45491;-63
2021/08/27 09:43:30;;;;;;;;;5.00;4.00;;;;;21.25;51.03;101734.09;6182729;23;45271;-63
2021/08/27 09:45:57;;;;;;;;;7.25;5.50;;;;;21.28;51.18;101741.03;6182653;23;45239;-63
2021/08/27 09:48:23;;;;;;;;;6.25;4.00;;;;;21.40;50.89;101742.59;6182598;22;45246;-63
2021/08/27 09:50:50;;;;;;;;;6.25;3.00;;;;;21.53;50.45;101734.31;6182760;22;45274;-63
2021/08/27 09:53:17;;;;;;;;;7.00;3.50;;;;;21.61;50.13;101739.84;6181534;22;45230;-63
2021/08/27 09:56:00;;;;;;;;;1.75;1.75;;;;;21.73;48.33;101739.59;6182724;23;45211;-63
2021/08/27 09:58:26;;;;;;;;;8.50;7.25;;;;;21.81;47.50;101738.06;6182641;23;45113;-63
2021/08/27 10:01:05;;;;;;;;;1.25;1.00;;;;;21.80;47.56;101745.22;6182771;23;45484;-62
2021/08/27 10:03:31;;;;;;;;;4.00;1.75;;;;;21.78;46.85;101741.84;6181643;23;45403;-63
2021/08/27 10:05:56;;;;;;;;;3.00;2.00;;;;;21.83;46.55;101736.91;6182589;23;45322;-63
2021/08/27 10:08:25;;;;;;;;;1.00;1.00;;;;;21.91;46.52;101731.69;6182479;23;45369;-63
2021/08/27 10:10:57;;;;;;;;;1.50;1.00;;;;;22.00;46.70;101744.28;6183123;23;45153;-63
2021/08/27 10:13:24;;;;;;;;;3.25;1.25;;;;;22.06;46.76;101731.28;6181655;23;45267;-63
2021/08/27 10:15:52;;;;;;;;;5.50;3.00;;;;;22.14;46.72;101732.31;6182710;23;45090;-63
2021/08/27 10:18:18;;;;;;;;;3.00;2.00;;;;;22.10;46.59;101727.34;6182570;23;45291;-63
2021/08/27 10:20:45;;;;;;;;;2.50;1.00;;;;;21.93;46.47;101732.41;6182828;23;45161;-63
2021/08/27 10:23:14;;;;;;;;;2.75;1.75;;;;;21.76;46.56;101726.88;6287426;22;46871;-62
2021/08/27 10:25:40;;;;;;;;;4.50;2.00;;;;;21.60;46.69;101740.84;6182719;23;45187;-62
2021/08/27 10:28:08;;;;;;;;;2.00;1.00;;;;;21.45;46.82;101726.97;6182600;23;45160;-64
2021/08/27 10:30:49;;;;;;;;;1.00;0.50;;;;;21.33;46.89;101736.09;6182779;23;45263;-63
2021/08/27 10:33:19;;;;;;;;;3.50;1.25;;;;;21.27;46.80;101734.81;6182141;23;45308;-63
2021/08/27 10:35:49;;;;;;;;;1.25;0.25;;;;;21.25;47.03;101727.84;6180405;22;45326;-63
2021/08/27 10:38:53;;;;;;;;;2.00;2.00;;;;;21.41;47.15;101723.72;6181890;23;45271;-63
2021/08/27 10:41:20;;;;;;;;;5.50;3.00;;;;;21.51;46.83;101729.09;6245894;22;45149;-63
2021/08/27 10:43:54;;;;;;;;;5.75;1.00;;;;;21.55;46.19;101724.31;6247109;22;45322;-63
2021/08/27 10:46:20;;;;;;;;;1.00;1.00;;;;;21.68;46.47;101725.75;6212925;22;45258;-63
2021/08/27 10:48:55;;;;;;;;;5.00;2.00;;;;;21.80;46.33;101730.97;6184165;23;45179;-64
2021/08/27 10:51:38;;;;;;;;;3.00;1.00;;;;;21.95;45.65;101741.16;6157511;22;45137;-63
2021/08/27 10:54:05;;;;;;;;;2.00;2.00;;;;;22.11;45.71;101731.72;6182706;23;45388;-64
2021/08/27 10:56:40;;;;;;;;;2.25;2.25;;;;;22.19;45.80;101724.66;6184191;23;45179;-64
2021/08/27 10:59:10;;;;;;;;;1.00;1.00;;;;;22.18;45.16;101733.69;6184359;23;45156;-64
2021/08/27 11:01:40;;;;;;;;;1.00;1.00;;;;;22.07;44.42;101720.41;6184241;23;45258;-63
2021/08/27 11:04:23;;;;;;;;;1.25;1.25;;;;;21.96;44.89;101721.41;6184110;23;45342;-64
2021/08/27 11:07:04;;;;;;;;;3.00;1.25;;;;;22.05;45.18;101719.72;6183780;23;45310;-64
2021/08/27 11:09:34;;;;;;;;;1.00;1.00;;;;;22.22;45.42;101712.81;6158677;23;45262;-64
2021/08/27 11:12:19;;;;;;;;;2.75;1.00;;;;;22.38;45.19;101715.75;6182137;23;45498;-63
2021/08/27 11:14:52;;;;;;;;;1.50;0.75;;;;;22.52;44.62;101718.00;6183994;23;46099;-64
2021/08/27 11:17:19;;;;;;;;;2.00;2.00;;;;;22.68;44.15;101712.00;6180787;23;45476;-61
2021/08/27 11:19:58;;;;;;;;;2.00;1.00;;;;;22.86;43.98;101722.88;6179677;23;45296;-64
2021/08/27 11:22:31;;;;;;;;;3.00;2.00;;;;;23.02;43.76;101706.13;6183095;23;45243;-63
2021/08/27 11:25:07;;;;;;;;;2.00;2.00;;;;;23.17;42.98;101706.47;6183087;23;46345;-60
2021/08/27 11:27:36;;;;;;;;;1.00;1.00;;;;;23.24;43.27;101715.63;6182758;23;45144;-59